createdAt,value
2018-04-14T00:00:51.151Z,43.20
2018-04-14T00:03:17.150Z,43.20
2018-04-14T00:05:43.147Z,43.20
2018-04-14T00:08:09.158Z,43.10
2018-04-14T00:10:35.159Z,43.20
2018-04-14T00:13:01.161Z,43.20
2018-04-14T00:15:27.154Z,43.10
2018-04-14T00:17:53.162Z,43.00
2018-04-14T00:20:19.150Z,43.10
2018-04-14T00:22:45.155Z,43.00
2018-04-14T00:25:11.151Z,43.10
2018-04-14T00:27:37.170Z,43.20
2018-04-14T00:30:03.903Z,43.10
2018-04-14T00:32:29.922Z,43.10
2018-04-14T00:34:55.909Z,43.10
2018-04-14T00:37:21.922Z,43.20
2018-04-14T00:39:47.906Z,43.20
2018-04-14T00:42:13.918Z,43.10
2018-04-14T00:44:40.651Z,43.10
2018-04-14T00:47:06.669Z,43.00
2018-04-14T00:49:32.649Z,43.00
2018-04-14T00:51:58.635Z,43.00
2018-04-14T00:54:24.667Z,43.00
2018-04-14T00:56:50.667Z,43.00
2018-04-14T00:59:16.679Z,43.00
2018-04-14T01:01:42.668Z,43.10
2018-04-14T01:04:08.722Z,43.70
2018-04-14T01:06:34.704Z,43.00
2018-04-14T01:09:00.715Z,43.10
2018-04-14T01:11:26.698Z,43.10
2018-04-14T01:13:52.706Z,43.10
2018-04-14T01:16:18.695Z,43.10
2018-04-14T01:18:44.699Z,43.10
2018-04-14T01:21:10.682Z,43.10
2018-04-14T01:23:36.694Z,43.10
2018-04-14T01:26:02.678Z,43.00
2018-04-14T01:28:28.692Z,43.00
2018-04-14T01:30:54.707Z,42.90
2018-04-14T01:33:20.710Z,43.00
2018-04-14T01:35:47.475Z,43.10
2018-04-14T01:38:13.456Z,43.60
2018-04-14T01:40:39.458Z,43.10
2018-04-14T01:43:05.451Z,43.00
2018-04-14T01:45:31.451Z,43.00
2018-04-14T01:47:57.444Z,43.00
2018-04-14T01:50:23.442Z,43.00
2018-04-14T01:52:49.423Z,43.00
2018-04-14T01:55:15.431Z,43.00
2018-04-14T01:57:41.418Z,43.00
2018-04-14T02:00:07.430Z,43.00
2018-04-14T02:02:33.410Z,43.00
2018-04-14T02:04:59.414Z,43.00
2018-04-14T02:07:25.743Z,42.90
2018-04-14T02:09:51.749Z,42.90
2018-04-14T02:12:17.741Z,42.90
2018-04-14T02:14:43.747Z,42.90
2018-04-14T02:17:09.730Z,42.80
2018-04-14T02:19:35.739Z,42.80
2018-04-14T02:22:01.731Z,42.70
2018-04-14T02:24:27.761Z,42.70
2018-04-14T02:26:53.747Z,42.60
2018-04-14T02:29:19.731Z,42.60
2018-04-14T02:31:45.730Z,42.50
2018-04-14T02:34:11.711Z,42.50
2018-04-14T02:36:37.739Z,42.40
2018-04-14T02:39:04.487Z,42.30
2018-04-14T02:41:30.491Z,42.30
2018-04-14T02:43:57.215Z,42.30
2018-04-14T02:46:23.227Z,42.30
2018-04-14T02:48:49.212Z,42.30
2018-04-14T02:51:15.219Z,42.10
2018-04-14T02:53:41.203Z,42.20
2018-04-14T02:56:07.277Z,42.20
2018-04-14T02:58:33.275Z,42.10
2018-04-14T03:01:00.027Z,42.10
2018-04-14T03:03:26.019Z,42.10
2018-04-14T03:05:52.030Z,42.10
2018-04-14T03:08:18.755Z,42.30
2018-04-14T03:10:44.767Z,42.30
2018-04-14T03:13:10.750Z,42.30
2018-04-14T03:15:36.736Z,42.20
2018-04-14T03:18:02.744Z,42.30
2018-04-14T03:20:28.725Z,42.20
2018-04-14T03:22:54.727Z,42.30
2018-04-14T03:25:20.724Z,42.30
2018-04-14T03:27:46.739Z,42.30
2018-04-14T03:30:12.730Z,42.30
2018-04-14T03:32:38.731Z,42.30
2018-04-14T03:35:04.735Z,42.30
2018-04-14T03:37:30.742Z,42.30
2018-04-14T03:39:56.724Z,42.40
2018-04-14T03:42:22.770Z,42.30
2018-04-14T03:44:48.749Z,42.30
2018-04-14T03:47:14.759Z,42.30
2018-04-14T03:49:40.767Z,42.30
2018-04-14T03:52:06.785Z,42.30
2018-04-14T03:54:32.770Z,42.30
2018-04-14T03:56:58.775Z,42.20
2018-04-14T03:59:24.758Z,42.30
2018-04-14T04:01:50.763Z,42.30
2018-04-14T04:04:16.748Z,42.30
2018-04-14T04:06:42.735Z,42.20
2018-04-14T04:09:08.756Z,42.30
2018-04-14T04:11:34.734Z,42.30
2018-04-14T04:14:00.738Z,42.40
2018-04-14T04:16:26.729Z,42.40
2018-04-14T04:19:04.959Z,42.40
2018-04-14T04:21:43.291Z,42.40
2018-04-14T04:24:21.639Z,42.30
2018-04-14T04:26:47.620Z,42.30
2018-04-14T04:29:13.626Z,42.30
2018-04-14T04:31:39.611Z,42.30
2018-04-14T04:34:05.631Z,42.30
2018-04-14T04:36:31.638Z,42.40
2018-04-14T04:38:57.647Z,42.30
2018-04-14T04:41:23.626Z,42.40
2018-04-14T04:43:50.366Z,42.30
2018-04-14T04:46:16.346Z,42.30
2018-04-14T04:48:42.399Z,42.30
2018-04-14T04:51:08.348Z,42.30
2018-04-14T04:53:34.363Z,42.20
2018-04-14T04:56:00.347Z,42.20
2018-04-14T04:58:26.350Z,42.20
2018-04-14T05:00:52.335Z,42.20
2018-04-14T05:03:18.318Z,42.20
2018-04-14T05:05:44.326Z,42.20
2018-04-14T05:08:10.307Z,42.20
2018-04-14T05:10:36.315Z,42.10
2018-04-14T05:13:02.299Z,42.20
2018-04-14T05:15:28.318Z,42.10
2018-04-14T05:17:54.314Z,42.00
2018-04-14T05:20:20.323Z,42.00
2018-04-14T05:22:46.307Z,42.00
2018-04-14T05:25:12.315Z,42.00
2018-04-14T05:27:38.317Z,42.00
2018-04-14T05:30:04.319Z,42.00
2018-04-14T05:32:30.299Z,42.10
2018-04-14T05:34:56.317Z,42.10
2018-04-14T05:37:22.325Z,42.10
2018-04-14T05:39:48.338Z,42.20
2018-04-14T05:42:14.323Z,42.10
2018-04-14T05:44:40.311Z,42.00
2018-04-14T05:47:06.319Z,42.00
2018-04-14T05:49:32.318Z,39.70
2018-04-14T05:51:58.355Z,39.40
2018-04-14T05:54:24.351Z,39.70
2018-04-14T05:56:50.359Z,40.20
2018-04-14T05:59:16.339Z,39.80
2018-04-14T06:01:42.347Z,39.70
2018-04-14T06:04:08.347Z,39.60
2018-04-14T06:06:34.362Z,40.40
2018-04-14T06:09:00.408Z,40.10
2018-04-14T06:11:26.362Z,40.30
2018-04-14T06:13:52.351Z,40.40
2018-04-14T06:16:18.358Z,40.70
2018-04-14T06:18:44.335Z,40.90
2018-04-14T06:21:10.346Z,41.10
2018-04-14T06:23:36.343Z,41.10
2018-04-14T06:26:02.349Z,41.40
2018-04-14T06:28:28.334Z,41.40
2018-04-14T06:30:54.339Z,41.70
2018-04-14T06:33:20.325Z,42.10
2018-04-14T06:35:46.367Z,42.00
2018-04-14T06:38:12.355Z,42.20
2018-04-14T06:40:38.339Z,42.60
2018-04-14T06:43:05.103Z,42.60
2018-04-14T06:45:31.066Z,42.60
2018-04-14T06:47:57.079Z,42.50
2018-04-14T06:50:23.070Z,42.30
2018-04-14T06:52:49.050Z,42.40
2018-04-14T06:55:15.027Z,42.70
2018-04-14T06:57:41.030Z,42.80
2018-04-14T07:00:07.015Z,42.40
2018-04-14T07:02:33.015Z,42.80
2018-04-14T07:04:58.994Z,42.60
2018-04-14T07:07:24.998Z,42.80
2018-04-14T07:09:51.033Z,42.90
2018-04-14T07:12:17.047Z,43.00
2018-04-14T07:14:43.023Z,42.70
2018-04-14T07:17:09.027Z,43.00
2018-04-14T07:19:35.013Z,43.00
2018-04-14T07:22:01.018Z,42.70
2018-04-14T07:24:27.019Z,42.60
2018-04-14T07:26:53.003Z,42.40
2018-04-14T07:29:19.012Z,42.20
2018-04-14T07:31:44.967Z,42.10
2018-04-14T07:34:10.982Z,42.90
2018-04-14T07:36:36.995Z,42.20
2018-04-14T07:39:03.774Z,42.50
2018-04-14T07:41:29.764Z,42.50
2018-04-14T07:43:55.780Z,42.00
2018-04-14T07:46:21.780Z,42.00
2018-04-14T07:48:47.803Z,41.70
2018-04-14T07:51:13.799Z,41.20
2018-04-14T07:53:39.803Z,41.60
2018-04-14T07:56:05.787Z,41.60
2018-04-14T07:58:31.803Z,41.60
2018-04-14T08:00:58.544Z,41.80
2018-04-14T08:03:24.563Z,41.70
2018-04-14T08:05:50.598Z,41.50
2018-04-14T08:08:16.599Z,42.20
2018-04-14T08:10:42.583Z,41.60
2018-04-14T08:13:08.571Z,41.20
2018-04-14T08:15:34.574Z,41.50
2018-04-14T08:18:00.556Z,41.50
2018-04-14T08:20:26.554Z,41.00
2018-04-14T08:22:52.548Z,40.90
2018-04-14T08:25:19.290Z,40.50
2018-04-14T08:27:45.278Z,40.40
2018-04-14T08:30:11.298Z,39.80
2018-04-14T08:32:37.282Z,38.90
2018-04-14T08:35:03.343Z,38.60
2018-04-14T08:37:29.392Z,39.20
2018-04-14T08:39:55.707Z,38.90
2018-04-14T08:42:21.690Z,39.30
2018-04-14T08:44:47.723Z,39.20
2018-04-14T08:47:13.706Z,39.10
2018-04-14T08:49:39.734Z,39.10
2018-04-14T08:52:05.715Z,39.30
2018-04-14T08:54:31.734Z,39.00
2018-04-14T08:56:57.718Z,38.90
2018-04-14T08:59:23.722Z,38.80
2018-04-14T09:01:50.378Z,38.50
2018-04-14T09:04:16.366Z,39.10
2018-04-14T09:09:46.003Z,39.80
2018-04-14T09:12:16.541Z,39.00
2018-04-14T09:14:42.526Z,38.60
2018-04-14T09:17:08.535Z,38.50
2018-04-14T09:19:34.524Z,39.00
2018-04-14T09:22:00.532Z,39.00
2018-04-14T09:24:26.518Z,38.20
2018-04-14T09:26:53.267Z,37.90
2018-04-14T09:29:19.291Z,37.90
2018-04-14T09:31:45.303Z,38.70
2018-04-14T09:34:11.283Z,39.10
2018-04-14T09:36:37.310Z,38.90
2018-04-14T09:39:05.129Z,39.00
2018-04-14T09:41:31.133Z,39.50
2018-04-14T09:43:57.114Z,39.50
2018-04-14T09:46:23.115Z,39.10
2018-04-14T09:48:49.107Z,37.90
2018-04-14T09:51:15.115Z,38.10
2018-04-14T09:53:41.099Z,38.30
2018-04-14T09:56:07.147Z,37.80
2018-04-14T09:58:33.131Z,37.80
2018-04-14T10:01:00.938Z,37.60
2018-04-14T10:03:27.762Z,38.30
2018-04-14T10:05:53.750Z,37.70
2018-04-14T10:08:19.773Z,38.00
2018-04-14T10:10:45.758Z,37.80
2018-04-14T10:13:11.770Z,38.80
2018-04-14T10:15:37.721Z,38.70
2018-04-14T10:18:03.703Z,38.60
2018-04-14T10:20:29.682Z,39.00
2018-04-14T10:22:55.695Z,38.20
2018-04-14T10:25:26.525Z,38.20
2018-04-14T10:27:53.003Z,38.40
2018-04-14T10:30:18.982Z,38.40
2018-04-14T10:32:44.994Z,39.10
2018-04-14T10:35:11.739Z,38.90
2018-04-14T10:37:37.739Z,39.40
2018-04-14T10:40:03.715Z,39.30
2018-04-14T10:42:29.726Z,39.70
2018-04-14T10:44:55.709Z,39.20
2018-04-14T10:47:21.715Z,39.10
2018-04-14T10:49:47.695Z,39.20
2018-04-14T10:52:13.710Z,39.20
2018-04-14T10:54:40.438Z,39.10
2018-04-14T10:57:06.431Z,39.10
2018-04-14T10:59:32.430Z,39.40
2018-04-14T11:01:58.394Z,38.90
2018-04-14T11:04:24.402Z,39.10
2018-04-14T11:06:50.402Z,39.30
2018-04-14T11:09:16.411Z,39.30
2018-04-14T11:11:42.395Z,39.50
2018-04-14T11:14:08.407Z,39.30
2018-04-14T11:16:35.151Z,39.60
2018-04-14T11:19:01.183Z,39.60
2018-04-14T11:21:27.191Z,39.60
2018-04-14T11:23:53.523Z,39.20
2018-04-14T11:26:19.515Z,39.30
2018-04-14T11:28:45.532Z,39.20
2018-04-14T11:31:11.558Z,39.10
2018-04-14T11:33:38.087Z,39.20
2018-04-14T11:36:04.099Z,39.40
2018-04-14T11:38:30.102Z,39.10
2018-04-14T11:40:56.079Z,39.10
2018-04-14T11:43:22.086Z,38.50
2018-04-14T11:45:48.082Z,38.50
2018-04-14T11:48:14.083Z,38.40
2018-04-14T11:50:40.076Z,38.20
2018-04-14T11:53:06.067Z,38.60
2018-04-14T11:55:32.082Z,38.10
2018-04-14T11:57:58.078Z,38.20
2018-04-14T12:00:24.087Z,38.40
2018-04-14T12:02:50.068Z,36.90
2018-04-14T12:05:16.074Z,36.30
2018-04-14T12:07:42.073Z,35.90
2018-04-14T12:10:08.083Z,36.30
2018-04-14T12:12:34.062Z,36.50
2018-04-14T12:15:00.091Z,36.70
2018-04-14T12:17:26.087Z,36.90
2018-04-14T12:19:52.091Z,37.00
2018-04-14T12:22:18.074Z,37.20
2018-04-14T12:24:44.083Z,37.30
2018-04-14T12:27:10.066Z,37.40
2018-04-14T12:29:36.075Z,38.10
2018-04-14T12:32:02.061Z,37.60
2018-04-14T12:34:28.047Z,37.70
2018-04-14T12:36:54.074Z,37.80
2018-04-14T12:39:20.037Z,37.80
2018-04-14T12:41:46.064Z,37.90
2018-04-14T12:44:12.051Z,37.90
2018-04-14T12:46:38.110Z,38.00
2018-04-14T12:49:04.090Z,38.10
2018-04-14T12:51:30.086Z,38.20
2018-04-14T12:53:56.067Z,38.30
2018-04-14T12:56:22.071Z,38.30
2018-04-14T12:58:48.060Z,38.10
2018-04-14T13:01:14.061Z,38.40
2018-04-14T13:03:40.064Z,38.50
2018-04-14T13:06:06.824Z,38.60
2018-04-14T13:08:32.807Z,38.60
2018-04-14T13:10:58.823Z,38.60
2018-04-14T13:13:24.802Z,38.60
2018-04-14T13:15:50.814Z,38.60
2018-04-14T13:18:16.803Z,38.70
2018-04-14T13:20:42.819Z,38.70
2018-04-14T13:23:08.835Z,38.80
2018-04-14T13:25:34.819Z,38.80
2018-04-14T13:28:00.827Z,38.70
2018-04-14T13:30:26.815Z,38.80
2018-04-14T13:32:52.814Z,38.90
2018-04-14T13:35:18.819Z,38.90
2018-04-14T13:37:44.819Z,38.90
2018-04-14T13:40:10.816Z,39.00
2018-04-14T13:42:36.819Z,39.00
2018-04-14T13:45:02.811Z,39.10
2018-04-14T13:47:28.883Z,39.20
2018-04-14T13:49:54.863Z,39.20
2018-04-14T13:52:21.751Z,39.30
2018-04-14T13:54:47.735Z,39.30
2018-04-14T13:57:13.742Z,39.30
2018-04-14T13:59:39.755Z,39.30
2018-04-14T14:02:05.758Z,39.40
2018-04-14T14:04:31.746Z,39.30
2018-04-14T14:06:57.762Z,39.40
2018-04-14T14:09:23.752Z,39.40
2018-04-14T14:11:49.758Z,39.50
2018-04-14T14:14:15.787Z,39.40
2018-04-14T14:16:41.766Z,39.50
2018-04-14T14:19:07.776Z,39.60
2018-04-14T14:21:33.759Z,39.60
2018-04-14T14:23:59.789Z,39.60
2018-04-14T14:26:25.807Z,39.60
2018-04-14T14:28:51.803Z,39.60
2018-04-14T14:31:17.785Z,39.50
2018-04-14T14:33:43.787Z,39.60
2018-04-14T14:36:09.790Z,39.60
2018-04-14T14:38:35.790Z,39.60
2018-04-14T14:41:01.784Z,39.60
2018-04-14T14:43:28.103Z,39.50
2018-04-14T14:45:54.082Z,39.60
2018-04-14T14:48:20.831Z,39.70
2018-04-14T14:50:46.813Z,39.60
2018-04-14T14:53:12.815Z,39.70
2018-04-14T14:55:38.807Z,39.60
2018-04-14T14:58:04.822Z,39.60
2018-04-14T15:00:30.838Z,39.70
2018-04-14T15:02:56.822Z,39.70
2018-04-14T15:05:22.831Z,40.30
2018-04-14T15:07:48.822Z,39.70
2018-04-14T15:10:14.826Z,39.70
2018-04-14T15:12:41.558Z,39.60
2018-04-14T15:15:08.306Z,39.70
2018-04-14T15:17:34.310Z,39.70
2018-04-14T15:20:00.314Z,39.60
2018-04-14T15:22:26.302Z,39.70
2018-04-14T15:24:52.311Z,39.70
2018-04-14T15:27:18.307Z,39.70
2018-04-14T15:29:44.307Z,39.60
2018-04-14T15:32:10.291Z,39.70
2018-04-14T15:34:36.300Z,39.70
2018-04-14T15:37:02.320Z,39.70
2018-04-14T15:39:28.322Z,39.70
2018-04-14T15:41:54.686Z,39.80
2018-04-14T15:44:20.695Z,40.30
2018-04-14T15:46:46.686Z,40.30
2018-04-14T15:49:12.675Z,39.80
2018-04-14T15:51:38.887Z,39.80
2018-04-14T15:54:04.869Z,39.80
2018-04-14T15:56:30.875Z,39.80
2018-04-14T15:58:56.862Z,39.80
2018-04-14T16:01:22.876Z,39.80
2018-04-14T16:03:48.901Z,39.80
2018-04-14T16:06:14.871Z,39.80
2018-04-14T16:08:40.862Z,39.80
2018-04-14T16:11:06.866Z,40.00
2018-04-14T16:13:32.852Z,39.80
2018-04-14T16:15:58.855Z,39.80
2018-04-14T16:18:24.841Z,39.90
2018-04-14T16:20:50.847Z,39.80
2018-04-14T16:23:16.833Z,39.90
2018-04-14T16:25:43.583Z,39.80
2018-04-14T16:28:09.541Z,39.80
2018-04-14T16:30:36.952Z,39.90
2018-04-14T16:33:02.946Z,39.80
2018-04-14T16:35:29.007Z,39.80
2018-04-14T16:37:55.011Z,39.80
2018-04-14T16:40:20.995Z,39.80
2018-04-14T16:42:46.969Z,39.90
2018-04-14T16:45:13.118Z,39.80
2018-04-14T16:47:39.098Z,39.80
2018-04-14T16:50:05.051Z,39.80
2018-04-14T16:52:31.067Z,39.80
2018-04-14T16:54:57.056Z,39.80
2018-04-14T16:57:23.067Z,39.80
2018-04-14T16:59:49.059Z,39.90
2018-04-14T17:02:15.047Z,40.00
2018-04-14T17:04:41.055Z,39.90
2018-04-14T17:07:07.070Z,39.90
2018-04-14T17:09:33.065Z,39.90
2018-04-14T17:11:59.066Z,39.90
2018-04-14T17:14:25.043Z,39.90
2018-04-14T17:16:51.050Z,39.90
2018-04-14T17:19:17.031Z,40.50
2018-04-14T17:21:43.039Z,40.00
2018-04-14T17:24:09.031Z,40.00
2018-04-14T17:26:35.015Z,40.00
2018-04-14T17:29:01.027Z,40.10
2018-04-14T17:31:27.019Z,40.10
2018-04-14T17:33:53.022Z,40.20
2018-04-14T17:36:19.036Z,40.20
2018-04-14T17:38:45.047Z,40.20
2018-04-14T17:41:11.035Z,40.30
2018-04-14T17:43:37.095Z,40.30
2018-04-14T17:46:03.077Z,40.40
2018-04-14T17:48:29.099Z,40.40
2018-04-14T17:50:55.833Z,40.90
2018-04-14T17:53:21.854Z,40.40
2018-04-14T17:55:47.834Z,40.40
2018-04-14T17:58:13.852Z,40.30
2018-04-14T18:00:39.843Z,40.30
2018-04-14T18:03:05.859Z,40.40
2018-04-14T18:05:31.851Z,40.30
2018-04-14T18:07:57.914Z,40.30
2018-04-14T18:10:23.906Z,40.30
2018-04-14T18:12:50.662Z,40.30
2018-04-14T18:15:16.647Z,40.30
2018-04-14T18:17:42.637Z,40.20
2018-04-14T18:20:08.648Z,40.20
2018-04-14T18:22:34.655Z,40.10
2018-04-14T18:25:00.666Z,40.10
2018-04-14T18:27:26.647Z,40.10
2018-04-14T18:29:52.654Z,40.20
2018-04-14T18:32:18.639Z,40.20
2018-04-14T18:34:44.663Z,40.20
2018-04-14T18:37:11.409Z,40.30
2018-04-14T18:39:37.419Z,40.10
2018-04-14T18:42:03.403Z,40.20
2018-04-14T18:44:29.415Z,40.10
2018-04-14T18:46:55.394Z,40.20
2018-04-14T18:49:21.418Z,40.10
2018-04-14T18:51:48.157Z,40.20
2018-04-14T18:54:14.179Z,40.10
2018-04-14T18:56:40.158Z,40.20
2018-04-14T18:59:06.168Z,40.20
2018-04-14T19:01:32.147Z,40.20
2018-04-14T19:03:58.158Z,40.20
2018-04-14T19:06:24.882Z,40.30
2018-04-14T19:08:50.867Z,40.20
2018-04-14T19:11:16.879Z,40.30
2018-04-14T19:13:42.863Z,40.20
2018-04-14T19:16:08.870Z,40.30
2018-04-14T19:18:34.855Z,40.30
2018-04-14T19:21:00.862Z,40.30
2018-04-14T19:23:26.850Z,40.40
2018-04-14T19:25:52.852Z,40.30
2018-04-14T19:28:18.835Z,40.30
2018-04-14T19:30:44.852Z,40.40
2018-04-14T19:33:10.830Z,40.40
2018-04-14T19:35:36.846Z,40.40
2018-04-14T19:38:02.847Z,40.40
2018-04-14T19:40:28.860Z,40.40
2018-04-14T19:42:54.843Z,40.30
2018-04-14T19:45:20.866Z,40.40
2018-04-14T19:47:46.859Z,40.40
2018-04-14T19:50:12.886Z,40.40
2018-04-14T19:52:38.867Z,40.40
2018-04-14T19:55:04.851Z,40.40
2018-04-14T19:57:30.867Z,40.30
2018-04-14T19:59:56.856Z,40.40
2018-04-14T20:02:22.868Z,40.40
2018-04-14T20:04:48.850Z,40.40
2018-04-14T20:07:14.854Z,40.40
2018-04-14T20:09:40.872Z,40.40
2018-04-14T20:12:06.889Z,40.50
2018-04-14T20:14:32.879Z,40.50
2018-04-14T20:16:58.883Z,40.50
2018-04-14T20:19:24.878Z,40.40
2018-04-14T20:21:50.899Z,40.50
2018-04-14T20:24:16.890Z,40.40
2018-04-14T20:26:42.899Z,40.40
2018-04-14T20:29:08.895Z,40.40
2018-04-14T20:31:35.643Z,40.50
2018-04-14T20:34:01.635Z,40.50
2018-04-14T20:36:27.663Z,40.50
2018-04-14T20:38:53.655Z,40.50
2018-04-14T20:41:19.667Z,40.50
2018-04-14T20:43:45.651Z,40.50
2018-04-14T20:46:11.635Z,40.50
2018-04-14T20:48:37.650Z,40.50
2018-04-14T20:51:03.648Z,40.50
2018-04-14T20:53:29.657Z,40.50
2018-04-14T20:55:55.649Z,40.50
2018-04-14T20:58:21.676Z,40.50
2018-04-14T21:00:47.662Z,40.40
2018-04-14T21:03:13.683Z,41.00
2018-04-14T21:05:39.675Z,40.40
2018-04-14T21:08:05.679Z,40.40
2018-04-14T21:10:31.672Z,40.40
2018-04-14T21:12:57.687Z,40.50
2018-04-14T21:15:23.678Z,40.50
2018-04-14T21:17:49.700Z,40.50
2018-04-14T21:20:15.697Z,40.50
2018-04-14T21:22:41.722Z,40.50
2018-04-14T21:25:07.786Z,40.50
2018-04-14T21:27:33.795Z,40.40
2018-04-14T21:29:59.787Z,40.50
2018-04-14T21:32:25.794Z,40.40
2018-04-14T21:34:52.531Z,40.40
2018-04-14T21:37:18.560Z,40.40
2018-04-14T21:39:45.311Z,40.40
2018-04-14T21:42:11.295Z,40.40
2018-04-14T21:44:37.299Z,40.40
2018-04-14T21:47:03.311Z,40.80
2018-04-14T21:49:29.331Z,40.40
2018-04-14T21:51:55.318Z,40.40
2018-04-14T21:54:21.318Z,40.50
2018-04-14T21:56:47.299Z,40.50
2018-04-14T21:59:13.310Z,41.00
2018-04-14T22:01:39.294Z,40.50
2018-04-14T22:04:05.298Z,40.40
2018-04-14T22:06:31.283Z,40.50
2018-04-14T22:08:57.295Z,40.40
2018-04-14T22:11:23.295Z,40.40
2018-04-14T22:13:49.303Z,40.50
2018-04-14T22:16:15.290Z,40.50
2018-04-14T22:18:41.311Z,40.40
2018-04-14T22:21:07.322Z,40.30
2018-04-14T22:23:33.315Z,40.40
2018-04-14T22:25:59.323Z,40.50
2018-04-14T22:28:25.306Z,40.50
2018-04-14T22:30:51.303Z,40.50
2018-04-14T22:33:17.298Z,40.40
2018-04-14T22:35:43.347Z,40.40
2018-04-14T22:38:09.347Z,40.40
2018-04-14T22:40:35.346Z,40.40
2018-04-14T22:43:01.326Z,40.40
2018-04-14T22:45:27.327Z,40.40
2018-04-14T22:47:53.318Z,40.40
2018-04-14T22:50:19.326Z,40.40
2018-04-14T22:52:45.317Z,40.30
2018-04-14T22:55:11.343Z,40.30
2018-04-14T22:57:37.342Z,40.30
2018-04-14T23:00:03.346Z,40.30
2018-04-14T23:02:30.066Z,40.40
2018-04-14T23:04:56.104Z,40.90
2018-04-14T23:07:22.090Z,40.30
2018-04-14T23:09:48.082Z,40.30
2018-04-14T23:12:14.082Z,40.40
2018-04-14T23:14:40.063Z,40.30
2018-04-14T23:17:06.070Z,40.40
2018-04-14T23:19:32.046Z,40.40
2018-04-14T23:21:58.059Z,40.30
2018-04-14T23:24:24.046Z,40.30
2018-04-14T23:26:50.050Z,40.40
2018-04-14T23:29:16.051Z,40.30
2018-04-14T23:31:42.079Z,40.30
2018-04-14T23:34:08.071Z,40.30
2018-04-14T23:36:34.848Z,40.80
2018-04-14T23:39:00.831Z,40.30
2018-04-14T23:41:26.838Z,40.30
2018-04-14T23:43:52.835Z,40.20
2018-04-14T23:46:18.853Z,40.20
2018-04-14T23:48:44.839Z,40.30
2018-04-14T23:51:11.586Z,40.20
2018-04-14T23:53:37.563Z,40.20
2018-04-14T23:56:03.602Z,40.80
2018-04-14T23:58:29.650Z,40.20
